Time;durP1;ratioP1;P1;durP2;ratioP2;P2;SDS_P1;SDS_P2;PMS_P1;PMS_P2;Temp;Humidity;BMP_temperature;BMP_pressure;BME280_temperature;BME280_humidity;BME280_pressure;Samples;Min_cycle;Max_cycle;Signal;HPM_P1;HPM_P2
2022/05/25 00:00:09;;;;;;;5.90;4.25;;;;;;;15.60;95.68;98299.09;4484826;31;20149;-70
2022/05/25 00:02:36;;;;;;;8.15;4.43;;;;;;;15.61;96.23;98301.56;4485181;32;20149;-70
2022/05/25 00:05:06;;;;;;;5.28;4.50;;;;;;;15.63;96.29;98309.31;4485265;32;20119;-70
2022/05/25 00:07:33;;;;;;;5.15;4.22;;;;;;;15.64;96.83;98299.56;4485025;31;20152;-70
2022/05/25 00:10:00;;;;;;;7.80;5.00;;;;;;;15.59;97.44;98289.53;4484955;32;20414;-70
2022/05/25 00:12:28;;;;;;;7.25;5.07;;;;;;;15.44;97.18;98285.06;4484880;31;20097;-70
2022/05/25 00:15:00;;;;;;;6.68;4.90;;;;;;;15.29;98.24;98278.97;4484973;31;20115;-70
2022/05/25 00:17:28;;;;;;;8.95;4.40;;;;;;;15.21;99.62;98271.09;4484922;32;20092;-70
2022/05/25 00:20:01;;;;;;;5.68;5.05;;;;;;;15.18;100.00;98271.47;4484915;31;20088;-70
2022/05/25 00:22:44;;;;;;;5.87;4.85;;;;;;;15.13;100.00;98272.00;4484922;32;20197;-70
2022/05/25 00:25:15;;;;;;;7.43;4.90;;;;;;;15.10;100.00;98276.81;4484423;31;20096;-70
2022/05/25 00:27:43;;;;;;;7.18;5.37;;;;;;;15.00;100.00;98275.22;4484915;31;20144;-70
2022/05/25 00:30:11;;;;;;;6.72;5.25;;;;;;;14.99;100.00;98284.16;4484509;31;20442;-70
2022/05/25 00:32:40;;;;;;;7.65;5.50;;;;;;;14.91;100.00;98292.13;4484781;31;20537;-70
2022/05/25 00:35:10;;;;;;;10.95;6.00;;;;;;;14.84;100.00;98278.81;4484774;32;20538;-70
2022/05/25 00:37:39;;;;;;;6.03;4.93;;;;;;;14.84;100.00;98280.66;4485032;31;20072;-70
2022/05/25 00:40:08;;;;;;;6.75;5.68;;;;;;;14.84;100.00;98289.38;4484725;31;20096;-70
2022/05/25 00:42:36;;;;;;;7.57;5.47;;;;;;;14.85;100.00;98288.38;4484706;32;20112;-70
2022/05/25 00:45:05;;;;;;;7.82;4.95;;;;;;;14.93;100.00;98287.50;4484599;31;20076;-70
2022/05/25 00:47:32;;;;;;;7.60;5.10;;;;;;;14.92;100.00;98288.50;4484599;31;20123;-69
2022/05/25 00:50:00;;;;;;;8.30;5.62;;;;;;;14.83;100.00;98286.91;4484575;31;20446;-70
2022/05/25 00:52:28;;;;;;;9.23;6.40;;;;;;;14.88;100.00;98292.47;4484450;31;20462;-70
2022/05/25 00:54:59;;;;;;;7.75;5.37;;;;;;;14.89;100.00;98286.22;4484436;31;20119;-70
2022/05/25 00:57:35;;;;;;;9.75;5.65;;;;;;;14.89;100.00;98281.75;4484688;32;20458;-70
2022/05/25 01:00:13;;;;;;;7.72;5.22;;;;;;;14.90;100.00;98283.41;4483131;32;20123;-70
2022/05/25 01:02:49;;;;;;;5.47;4.85;;;;;;;14.94;100.00;98281.22;4484544;31;20159;-70
2022/05/25 01:05:20;;;;;;;10.15;5.30;;;;;;;14.97;100.00;98293.22;4483046;32;20084;-70
2022/05/25 01:08:39;;;;;;;6.32;5.22;;;;;;;14.90;100.00;98293.13;4483185;32;20155;-70
2022/05/25 01:11:27;;;;;;;5.72;4.43;;;;;;;14.96;100.00;98292.44;4419811;32;20452;-70
2022/05/25 01:14:15;;;;;;;7.00;4.70;;;;;;;15.02;100.00;98296.19;4419759;32;20152;-70
2022/05/25 01:16:48;;;;;;;7.12;4.87;;;;;;;14.98;100.00;98290.41;4419732;32;20097;-70
2022/05/25 01:19:34;;;;;;;11.20;5.32;;;;;;;14.94;99.98;98283.03;4419826;32;20081;-70
2022/05/25 01:22:33;;;;;;;6.40;5.07;;;;;;;14.90;99.69;98296.59;4419685;32;20145;-70
2022/05/25 01:25:11;;;;;;;6.70;4.53;;;;;;;14.90;99.60;98298.41;4374184;32;20099;-70
2022/05/25 01:27:44;;;;;;;6.82;5.07;;;;;;;14.98;98.78;98302.81;4361768;32;20098;-70
2022/05/25 01:30:28;;;;;;;7.00;4.85;;;;;;;14.97;98.29;98303.78;4361462;32;20106;-70
2022/05/25 01:33:01;;;;;;;5.40;4.55;;;;;;;14.94;98.11;98293.59;4359216;32;20466;-70
2022/05/25 01:35:41;;;;;;;8.05;4.62;;;;;;;14.98;98.15;98298.34;4359384;32;20168;-70
2022/05/25 01:38:24;;;;;;;6.55;4.50;;;;;;;14.98;97.99;98289.59;4349032;32;20121;-70
2022/05/25 01:41:15;;;;;;;5.65;4.90;;;;;;;14.97;97.60;98304.59;4361055;32;20166;-70
2022/05/25 01:44:25;;;;;;;6.53;4.90;;;;;;;14.98;97.03;98305.44;4361083;32;20115;-70
2022/05/25 01:46:55;;;;;;;7.65;4.40;;;;;;;14.98;96.82;98302.81;4390292;32;20125;-70
2022/05/25 01:49:26;;;;;;;9.57;4.90;;;;;;;14.99;97.14;98302.63;4393765;32;20098;-70
2022/05/25 01:52:14;;;;;;;5.85;4.30;;;;;;;14.96;97.02;98289.78;4405972;32;20116;-70
2022/05/25 01:54:48;;;;;;;5.37;4.32;;;;;;;14.93;96.79;98292.78;4393492;32;20098;-70
2022/05/25 01:57:16;;;;;;;6.10;4.85;;;;;;;14.89;96.96;98294.94;4406172;32;20144;-70
2022/05/25 01:59:44;;;;;;;7.62;4.35;;;;;;;14.94;96.66;98288.31;4393319;32;20097;-70
2022/05/25 02:05:00;;;;;;;6.47;4.07;;;;;;;15.10;95.07;98293.47;4470037;32;20132;-70
2022/05/25 02:07:49;;;;;;;5.95;4.55;;;;;;;15.00;94.49;98295.53;4469198;32;20712;-70
2022/05/25 02:10:19;;;;;;;4.75;3.92;;;;;;;14.92;94.96;98300.87;4470159;32;20101;-70
2022/05/25 02:13:24;;;;;;;8.18;3.65;;;;;;;15.16;92.81;98289.31;4470036;32;20107;-71
2022/05/25 02:16:29;;;;;;;6.55;4.40;;;;;;;15.17;93.63;98298.84;4408710;32;20149;-70
2022/05/25 02:19:45;;;;;;;5.95;4.20;;;;;;;15.07;93.47;98289.34;4408593;32;20109;-70
2022/05/25 02:22:22;;;;;;;5.20;3.72;;;;;;;15.05;93.70;98280.00;4387375;32;20188;-70
2022/05/25 02:24:54;;;;;;;5.82;4.28;;;;;;;15.03;93.16;98276.69;4390735;32;20110;-70
2022/05/25 02:27:25;;;;;;;5.47;3.65;;;;;;;15.06;92.64;98281.62;4378456;32;20431;-70
2022/05/25 02:29:58;;;;;;;7.40;4.40;;;;;;;14.93;92.93;98279.59;4390515;32;20449;-70
2022/05/25 02:32:52;;;;;;;6.75;3.92;;;;;;;14.92;92.87;98272.66;4404846;32;20110;-70
2022/05/25 02:35:22;;;;;;;7.43;4.30;;;;;;;14.95;93.02;98277.59;4405820;32;20120;-70
2022/05/25 02:37:53;;;;;;;5.90;4.10;;;;;;;14.88;93.32;98281.91;4418348;32;20110;-70
2022/05/25 02:40:21;;;;;;;4.93;3.42;;;;;;;14.93;93.50;98282.22;4418508;32;20219;-70
2022/05/25 02:42:48;;;;;;;5.57;4.15;;;;;;;14.90;93.36;98278.13;4418470;32;20125;-70
2022/05/25 02:45:16;;;;;;;6.47;4.20;;;;;;;14.72;93.77;98273.13;4405605;32;20113;-70
2022/05/25 02:47:44;;;;;;;9.27;4.00;;;;;;;14.55;95.09;98271.59;4405620;32;20098;-70
2022/05/25 02:50:11;;;;;;;7.45;3.97;;;;;;;14.64;94.81;98267.94;4405743;32;20184;-70
2022/05/25 02:52:39;;;;;;;6.57;4.45;;;;;;;14.60;95.31;98273.72;4436046;32;20097;-70
2022/05/25 02:55:06;;;;;;;5.28;3.80;;;;;;;14.51;95.72;98275.56;4436381;32;20124;-71
2022/05/25 02:57:33;;;;;;;6.25;4.05;;;;;;;14.45;96.21;98278.91;4436303;32;20101;-70
2022/05/25 03:00:03;;;;;;;8.30;4.57;;;;;;;14.43;96.81;98275.59;4483030;32;20529;-70
2022/05/25 03:02:30;;;;;;;5.50;3.90;;;;;;;14.48;96.62;98271.47;4485660;31;20088;-71
2022/05/25 03:04:57;;;;;;;6.30;4.30;;;;;;;14.37;96.83;98282.41;4485611;32;20085;-70
2022/05/25 03:07:25;;;;;;;6.43;4.03;;;;;;;14.41;97.19;98281.03;4485539;32;20096;-70
2022/05/25 03:09:52;;;;;;;5.60;4.25;;;;;;;14.41;97.20;98283.69;4485596;31;20088;-70
2022/05/25 03:12:20;;;;;;;8.13;4.00;;;;;;;14.38;97.62;98276.97;4485282;31;20161;-71
2022/05/25 03:14:48;;;;;;;6.30;3.55;;;;;;;14.47;97.27;98282.97;4485585;31;20116;-70
2022/05/25 03:17:15;;;;;;;5.40;4.28;;;;;;;14.46;96.82;98283.16;4485441;31;20462;-70
2022/05/25 03:19:52;;;;;;;7.35;3.90;;;;;;;14.75;95.61;98282.53;4485793;32;20477;-70
2022/05/25 03:22:20;;;;;;;5.78;4.18;;;;;;;14.62;96.30;98277.00;4484399;32;20115;-70
2022/05/25 03:24:47;;;;;;;5.40;4.15;;;;;;;14.30;97.54;98282.25;4485522;31;20138;-70
2022/05/25 03:27:15;;;;;;;4.93;3.78;;;;;;;14.29;97.83;98278.00;4485632;31;20108;-70
2022/05/25 03:29:43;;;;;;;5.62;4.60;;;;;;;14.38;97.42;98276.97;4485346;31;20100;-70
2022/05/25 03:32:11;;;;;;;8.00;4.75;;;;;;;14.37;96.77;98279.78;4485262;32;20583;-70
2022/05/25 03:34:38;;;;;;;8.82;4.20;;;;;;;14.32;97.14;98279.47;4485409;31;20642;-70
2022/05/25 03:37:06;;;;;;;4.85;4.10;;;;;;;14.35;96.68;98284.38;4485207;31;20116;-70
2022/05/25 03:39:33;;;;;;;9.43;4.45;;;;;;;14.42;97.07;98281.88;4485303;31;20096;-71
2022/05/25 03:42:08;;;;;;;7.00;4.32;;;;;;;14.44;96.55;98285.16;4485473;31;20142;-70
2022/05/25 03:44:35;;;;;;;5.40;4.12;;;;;;;14.52;96.10;98291.22;4484108;32;20119;-70
2022/05/25 03:47:03;;;;;;;11.68;5.10;;;;;;;14.65;94.83;98295.91;4485161;31;20092;-71
2022/05/25 03:49:30;;;;;;;5.47;4.15;;;;;;;14.67;94.49;98299.22;4485215;31;20103;-70
2022/05/25 03:51:58;;;;;;;8.88;4.68;;;;;;;14.71;94.16;98311.03;4485072;32;20101;-70
2022/05/25 03:54:25;;;;;;;5.32;4.00;;;;;;;14.80;93.45;98306.53;4485494;31;20461;-70
2022/05/25 03:56:53;;;;;;;5.43;4.05;;;;;;;14.88;92.52;98316.22;4485184;31;20118;-70
2022/05/25 03:59:20;;;;;;;5.65;4.32;;;;;;;15.00;92.39;98311.34;4484185;31;20108;-70
2022/05/25 04:01:48;;;;;;;6.07;4.20;;;;;;;14.95;91.83;98317.16;4484791;31;20092;-71
2022/05/25 04:04:16;;;;;;;6.72;4.00;;;;;;;15.13;90.98;98318.69;4484318;31;20115;-70
2022/05/25 04:06:43;;;;;;;6.80;4.20;;;;;;;15.19;90.86;98328.53;4484885;31;20239;-70
2022/05/25 04:09:10;;;;;;;6.72;3.78;;;;;;;15.14;91.83;98328.22;4485010;31;20092;-70
2022/05/25 04:11:40;;;;;;;5.75;4.45;;;;;;;15.25;91.17;98317.25;4484805;32;20092;-69
2022/05/25 04:14:07;;;;;;;6.00;4.22;;;;;;;15.23;91.11;98324.50;4484941;31;20084;-70
2022/05/25 04:16:34;;;;;;;4.20;3.28;;;;;;;15.26;90.17;98321.50;4484942;31;20149;-70
2022/05/25 04:19:02;;;;;;;7.03;3.87;;;;;;;15.30;89.88;98328.09;4484876;31;20546;-69
2022/05/25 04:21:29;;;;;;;4.47;3.35;;;;;;;15.24;89.11;98336.72;4484751;31;20115;-70
2022/05/25 04:23:56;;;;;;;5.80;3.28;;;;;;;15.34;88.13;98341.75;4484674;31;20108;-69
2022/05/25 04:26:24;;;;;;;4.78;3.55;;;;;;;15.28;88.60;98351.19;4484773;32;20108;-70
2022/05/25 04:28:51;;;;;;;4.97;3.12;;;;;;;15.40;88.56;98352.41;4484862;31;20096;-70
2022/05/25 04:31:18;;;;;;;4.65;3.53;;;;;;;15.41;87.84;98347.94;4484911;31;20104;-69
2022/05/25 04:33:45;;;;;;;3.92;3.10;;;;;;;15.34;88.29;98337.28;4484767;31;20158;-70
2022/05/25 04:36:12;;;;;;;5.32;3.47;;;;;;;15.41;87.92;98338.22;4484948;31;20529;-70
2022/05/25 04:38:40;;;;;;;6.68;4.12;;;;;;;15.33;87.64;98335.62;4484427;31;20445;-70
2022/05/25 04:41:07;;;;;;;5.97;3.65;;;;;;;15.36;88.21;98331.84;4484655;31;20108;-69
2022/05/25 04:43:34;;;;;;;5.37;3.58;;;;;;;15.43;87.69;98335.41;4484688;31;20085;-70
2022/05/25 04:46:07;;;;;;;5.12;3.53;;;;;;;15.54;87.45;98334.16;4484619;31;20186;-70
2022/05/25 04:48:35;;;;;;;5.12;3.53;;;;;;;15.64;86.39;98331.22;4484587;31;20119;-70
2022/05/25 04:51:02;;;;;;;4.03;3.47;;;;;;;15.63;85.94;98346.28;4484555;31;20110;-70
2022/05/25 04:53:29;;;;;;;9.73;3.58;;;;;;;15.72;86.00;98353.09;4484448;31;20100;-70
2022/05/25 04:58:45;;;;;;;6.55;3.55;;;;;;;16.05;84.46;98347.50;4484537;31;20107;-70
2022/05/25 05:01:14;;;;;;;4.35;3.10;;;;;;;16.07;83.77;98358.72;4482309;31;20131;-70
2022/05/25 05:03:41;;;;;;;5.87;3.35;;;;;;;15.89;84.78;98358.25;4477530;31;20143;-70
2022/05/25 05:06:10;;;;;;;4.60;3.47;;;;;;;15.84;85.69;98356.16;4482148;31;20093;-69
2022/05/25 05:08:38;;;;;;;5.93;3.50;;;;;;;15.96;85.18;98357.34;4481771;31;20084;-70
2022/05/25 05:11:07;;;;;;;4.57;3.50;;;;;;;15.92;85.47;98360.53;4480514;31;20108;-69
2022/05/25 05:13:34;;;;;;;6.82;3.58;;;;;;;16.00;85.35;98372.84;4482614;31;20103;-69
2022/05/25 05:16:08;;;;;;;9.13;4.00;;;;;;;16.18;84.90;98380.41;4477744;32;20131;-70
2022/05/25 05:18:35;;;;;;;6.32;3.35;;;;;;;16.33;84.04;98373.28;4480533;32;20108;-70
2022/05/25 05:21:04;;;;;;;4.50;2.87;;;;;;;16.29;83.92;98362.25;4482533;31;20092;-69
2022/05/25 05:23:31;;;;;;;6.03;3.35;;;;;;;16.45;83.69;98369.16;4485446;31;20080;-70
2022/05/25 05:25:58;;;;;;;6.87;3.60;;;;;;;16.60;83.60;98368.31;4485279;31;20470;-70
2022/05/25 05:28:31;;;;;;;6.20;3.37;;;;;;;16.71;81.52;98369.66;4483203;31;21293;-70
2022/05/25 05:31:00;;;;;;;5.82;3.62;;;;;;;16.80;82.16;98371.19;4478010;32;20100;-69
2022/05/25 05:33:27;;;;;;;4.78;3.25;;;;;;;16.96;80.67;98384.22;4485211;31;20104;-70
2022/05/25 05:35:59;;;;;;;4.75;3.20;;;;;;;16.99;81.84;98385.69;4483614;32;20458;-70
2022/05/25 05:38:27;;;;;;;3.92;3.45;;;;;;;16.96;81.70;98386.06;4476236;31;20126;-70
2022/05/25 05:40:55;;;;;;;4.68;3.40;;;;;;;16.99;81.37;98389.12;4478873;32;20084;-69
2022/05/25 05:43:22;;;;;;;5.32;3.45;;;;;;;16.94;80.96;98386.25;4486858;31;20100;-70
2022/05/25 05:45:51;;;;;;;4.43;3.25;;;;;;;17.05;80.32;98392.87;4479123;31;20120;-70
2022/05/25 05:48:24;;;;;;;11.40;3.62;;;;;;;16.97;80.47;98396.44;4478901;32;20570;-69
2022/05/25 05:50:56;;;;;;;20.17;3.72;;;;;;;17.05;80.44;98406.09;4485525;31;20171;-70
2022/05/25 05:53:26;;;;;;;3.72;3.30;;;;;;;16.99;81.44;98406.84;4484098;31;20089;-70
2022/05/25 05:55:53;;;;;;;5.70;3.65;;;;;;;17.18;79.73;98411.53;4480317;32;20155;-70
2022/05/25 05:58:21;;;;;;;5.90;3.80;;;;;;;17.42;78.82;98424.56;4481788;31;20115;-67
2022/05/25 06:00:48;;;;;;;13.93;3.60;;;;;;;17.42;79.19;98414.78;4481670;31;20104;-69
2022/05/25 06:03:15;;;;;;;5.47;3.70;;;;;;;17.38;79.05;98408.22;4480393;31;20111;-70
2022/05/25 06:05:45;;;;;;;3.83;3.28;;;;;;;17.42;79.00;98412.12;4483161;31;20100;-70
2022/05/25 06:08:16;;;;;;;5.03;4.00;;;;;;;17.26;79.42;98409.75;4478410;32;20100;-70
2022/05/25 06:10:43;;;;;;;7.07;3.72;;;;;;;17.23;79.72;98407.47;4483241;31;20122;-70
2022/05/25 06:13:11;;;;;;;4.93;3.58;;;;;;;17.43;79.47;98410.34;4483788;32;20118;-70
2022/05/25 06:21:11;;;;;;;4.15;3.70;;;;;;;17.65;79.24;98424.34;4483739;31;20151;-71
2022/05/25 06:23:38;;;;;;;8.20;3.75;;;;;;;17.84;77.32;98431.66;4481071;31;20096;-70
2022/05/25 06:26:05;;;;;;;5.85;3.87;;;;;;;17.87;76.17;98431.25;4484915;32;20135;-71
2022/05/25 06:28:32;;;;;;;5.12;3.50;;;;;;;17.82;77.22;98425.72;4485232;31;20096;-71
2022/05/25 06:31:00;;;;;;;4.93;3.20;;;;;;;17.95;76.32;98432.16;4480479;31;20428;-70
2022/05/25 06:33:27;;;;;;;4.07;3.42;;;;;;;18.15;76.80;98419.03;4480204;32;20695;-70
2022/05/25 06:36:17;;;;;;;3.80;3.22;;;;;;;18.44;75.80;98423.31;4485159;31;20161;-73
2022/05/25 06:38:45;;;;;;;4.90;3.62;;;;;;;18.41;75.10;98424.50;4485037;31;20807;-71
2022/05/25 06:41:13;;;;;;;4.90;3.80;;;;;;;18.33;75.16;98410.59;4483246;32;20462;-71
2022/05/25 06:43:41;;;;;;;6.72;3.60;;;;;;;18.42;75.71;98422.66;4484327;31;20100;-71
2022/05/25 06:46:12;;;;;;;5.07;3.55;;;;;;;18.60;75.59;98422.13;4485563;31;20096;-71
2022/05/25 06:48:51;;;;;;;6.65;4.10;;;;;;;18.69;75.49;98433.41;4482558;31;20100;-71
2022/05/25 06:51:23;;;;;;;7.28;4.10;;;;;;;18.72;74.27;98430.34;4483620;31;20175;-70
2022/05/25 06:53:52;;;;;;;8.57;4.57;;;;;;;18.84;74.68;98441.22;4482069;32;20096;-71
2022/05/25 06:56:20;;;;;;;5.20;3.53;;;;;;;18.78;74.80;98440.19;4482544;32;20112;-70
2022/05/25 06:58:48;;;;;;;5.95;3.33;;;;;;;19.06;74.47;98436.63;4485390;31;20092;-71
2022/05/25 07:01:15;;;;;;;6.90;4.10;;;;;;;19.10;75.15;98448.47;4483614;31;20118;-72
2022/05/25 07:03:43;;;;;;;4.22;3.50;;;;;;;19.28;73.57;98446.06;4483098;32;20160;-71
2022/05/25 07:06:12;;;;;;;5.12;3.95;;;;;;;19.28;74.29;98445.25;4485131;31;20101;-72
2022/05/25 07:08:39;;;;;;;9.82;3.83;;;;;;;19.29;73.50;98442.41;4481870;32;20139;-71
2022/05/25 07:11:07;;;;;;;7.65;4.03;;;;;;;19.41;73.87;98445.28;4478594;31;20160;-71
2022/05/25 07:13:34;;;;;;;7.28;4.00;;;;;;;19.38;74.21;98429.75;4482579;32;20172;-71
2022/05/25 07:16:05;;;;;;;5.55;4.47;;;;;;;19.55;75.35;98432.03;4484075;31;20108;-72
2022/05/25 07:18:32;;;;;;;8.95;4.28;;;;;;;19.63;73.68;98431.81;4484584;31;20120;-69
2022/05/25 07:21:15;;;;;;;9.70;4.85;;;;;;;19.78;76.42;98435.09;4489314;31;20487;-71
2022/05/25 07:23:47;;;;;;;6.75;3.92;;;;;;;19.88;74.47;98450.66;4485537;31;20381;-70
2022/05/25 07:26:15;;;;;;;5.22;4.22;;;;;;;20.08;74.61;98444.50;4483668;31;20152;-71
2022/05/25 07:28:42;;;;;;;6.87;5.25;;;;;;;20.19;73.45;98442.03;4484386;31;20092;-71
2022/05/25 07:31:15;;;;;;;7.55;4.53;;;;;;;20.25;73.82;98447.56;4482249;31;20170;-71
2022/05/25 07:33:45;;;;;;;8.97;4.53;;;;;;;20.03;72.65;98439.81;4479552;31;20088;-71
2022/05/25 07:36:12;;;;;;;5.18;4.68;;;;;;;20.00;75.29;98442.88;4483086;32;20104;-71
2022/05/25 07:38:43;;;;;;;6.87;4.57;;;;;;;20.24;75.29;98443.25;4478458;31;20116;-71
2022/05/25 07:41:11;;;;;;;6.60;4.82;;;;;;;20.51;74.05;98446.66;4462481;32;20096;-71
2022/05/25 07:43:40;;;;;;;5.93;4.90;;;;;;;20.68;73.81;98449.69;4471921;32;20096;-71
2022/05/25 07:46:07;;;;;;;7.22;5.25;;;;;;;20.30;72.32;98442.41;4472756;31;20190;-71
2022/05/25 07:48:36;;;;;;;9.35;5.20;;;;;;;20.52;73.06;98446.44;4477534;32;21951;-71
2022/05/25 07:51:04;;;;;;;6.50;4.95;;;;;;;20.91;75.09;98450.03;4478895;32;20135;-71
2022/05/25 07:56:17;;;;;;;8.10;5.03;;;;;;;21.53;71.72;98446.84;4476615;31;20127;-70
2022/05/25 07:58:45;;;;;;;7.85;5.43;;;;;;;21.64;71.96;98455.97;4478756;31;20374;-71
2022/05/25 08:01:14;;;;;;;8.15;5.00;;;;;;;21.51;72.15;98450.75;4478389;32;20150;-71
2022/05/25 08:06:29;;;;;;;10.43;5.62;;;;;;;21.95;69.07;98462.28;4473305;32;20442;-70
2022/05/25 08:08:57;;;;;;;9.30;5.45;;;;;;;21.56;69.76;98461.56;4479273;32;20414;-71
2022/05/25 08:11:24;;;;;;;7.70;5.57;;;;;;;21.78;68.66;98462.84;4480068;32;20118;-71
2022/05/25 08:13:54;;;;;;;8.70;5.75;;;;;;;22.01;70.63;98452.59;4480792;32;20746;-71
2022/05/25 08:16:21;;;;;;;8.55;5.45;;;;;;;21.73;71.33;98462.69;4482664;32;20108;-71
2022/05/25 08:18:48;;;;;;;9.40;6.22;;;;;;;21.77;70.53;98463.06;4480688;31;20449;-71
2022/05/25 08:21:16;;;;;;;7.87;6.62;;;;;;;21.54;69.47;98452.97;4483244;31;20542;-70
2022/05/25 08:24:03;;;;;;;7.35;5.07;;;;;;;21.91;72.10;98448.59;4481165;32;20120;-70
2022/05/25 08:26:30;;;;;;;9.30;5.25;;;;;;;22.36;69.70;98458.22;4481728;32;20168;-71
2022/05/25 08:28:58;;;;;;;7.35;5.20;;;;;;;22.63;69.16;98458.75;4480405;31;20088;-71
2022/05/25 08:31:25;;;;;;;9.15;5.85;;;;;;;22.77;68.31;98456.78;4475019;31;20111;-71
2022/05/25 08:33:52;;;;;;;11.27;5.53;;;;;;;22.67;68.43;98443.94;4475094;32;20521;-71
2022/05/25 08:36:19;;;;;;;7.93;6.05;;;;;;;22.75;67.63;98458.84;4480030;31;20100;-71
2022/05/25 08:38:47;;;;;;;8.98;5.87;;;;;;;22.80;66.45;98450.16;4480873;31;20104;-71
2022/05/25 08:41:15;;;;;;;11.18;5.70;;;;;;;22.86;66.53;98455.44;4481490;31;20112;-71
2022/05/25 08:43:47;;;;;;;8.88;5.85;;;;;;;22.96;68.30;98459.41;4482038;31;20108;-71
2022/05/25 08:46:18;;;;;;;11.95;6.12;;;;;;;22.97;67.01;98463.72;4481170;31;20114;-71
2022/05/25 08:48:46;;;;;;;12.10;6.82;;;;;;;22.64;64.65;98457.72;4485123;31;20122;-70
2022/05/25 08:51:43;;;;;;;10.30;7.12;;;;;;;22.70;69.21;98461.37;4480458;31;20180;-71
2022/05/25 08:54:11;;;;;;;14.87;6.78;;;;;;;22.76;71.02;98454.31;4477828;32;20119;-71
2022/05/25 08:56:44;;;;;;;9.45;6.35;;;;;;;22.58;69.89;98453.28;4480569;31;20115;-69
2022/05/25 08:59:15;;;;;;;9.50;6.55;;;;;;;22.90;69.69;98455.78;4476044;32;20172;-68
2022/05/25 09:01:48;;;;;;;9.35;7.28;;;;;;;23.21;70.99;98452.13;4472628;32;20562;-70
2022/05/25 09:04:32;;;;;;;12.57;7.67;;;;;;;23.09;66.10;98445.06;4478379;32;20096;-72
2022/05/25 09:07:26;;;;;;;8.90;6.35;;;;;;;22.94;65.88;98448.16;4479667;32;20120;-71
2022/05/25 09:09:54;;;;;;;10.98;7.62;;;;;;;23.35;66.02;98455.41;4480144;31;20100;-71
2022/05/25 09:12:29;;;;;;;11.05;6.75;;;;;;;23.39;63.08;98453.91;4475488;31;20092;-72
2022/05/25 09:15:10;;;;;;;10.25;7.00;;;;;;;23.62;65.89;98448.84;4478534;32;20100;-72
2022/05/25 09:17:43;;;;;;;8.65;6.72;;;;;;;23.49;64.89;98456.03;4469708;32;20134;-72
2022/05/25 09:20:13;;;;;;;13.10;7.43;;;;;;;23.67;64.44;98454.34;4478170;31;20153;-72
2022/05/25 09:22:41;;;;;;;12.80;8.80;;;;;;;23.40;64.06;98454.72;4479622;32;20259;-72
2022/05/25 09:25:12;;;;;;;9.98;7.00;;;;;;;23.49;65.04;98455.22;4482060;31;20479;-72
2022/05/25 09:27:45;;;;;;;7.55;5.47;;;;;;;23.53;66.49;98457.22;4476220;32;20442;-72
2022/05/25 09:30:13;;;;;;;8.68;5.37;;;;;;;23.56;64.65;98451.41;4481259;32;20528;-72
2022/05/25 09:32:51;;;;;;;6.78;6.00;;;;;;;23.72;63.66;98455.28;4478911;32;20111;-72
2022/05/25 09:35:42;;;;;;;8.73;6.95;;;;;;;23.92;64.08;98457.66;4476458;31;20123;-72
2022/05/25 09:38:29;;;;;;;8.43;7.10;;;;;;;23.67;65.21;98459.69;4474362;32;20170;-72
2022/05/25 09:41:03;;;;;;;8.15;6.95;;;;;;;23.50;63.99;98457.66;4475061;32;20434;-73
2022/05/25 09:43:31;;;;;;;10.68;7.00;;;;;;;23.40;64.62;98460.06;4476846;31;20126;-73
2022/05/25 09:46:08;;;;;;;9.48;7.30;;;;;;;23.83;66.44;98459.00;4481944;32;20481;-73
2022/05/25 09:48:48;;;;;;;9.55;7.03;;;;;;;24.10;62.21;98458.56;4480145;32;20136;-73
2022/05/25 09:51:43;;;;;;;8.00;7.05;;;;;;;24.31;61.78;98465.19;4481338;31;20187;-73
2022/05/25 09:54:34;;;;;;;9.73;7.55;;;;;;;24.19;62.97;98464.41;4480483;32;20167;-73
2022/05/25 09:57:04;;;;;;;7.95;7.15;;;;;;;24.62;63.33;98468.59;4476010;31;20114;-73
2022/05/25 09:59:40;;;;;;;9.77;7.43;;;;;;;24.57;60.67;98466.59;4483183;31;20099;-73
2022/05/25 10:02:26;;;;;;;10.68;7.18;;;;;;;24.95;59.01;98467.91;4474695;32;20161;-72
2022/05/25 10:04:56;;;;;;;10.50;7.15;;;;;;;25.12;58.84;98464.47;4485456;31;20123;-71
2022/05/25 10:07:31;;;;;;;7.62;6.82;;;;;;;25.17;59.09;98458.41;4477902;32;20118;-72
2022/05/25 10:10:01;;;;;;;10.77;7.70;;;;;;;25.56;60.89;98453.22;4484305;32;20171;-73
2022/05/25 10:12:30;;;;;;;9.70;7.47;;;;;;;25.78;59.95;98458.66;4482370;32;20751;-73
2022/05/25 10:15:01;;;;;;;10.57;7.55;;;;;;;26.05;57.92;98461.53;4481179;31;20093;-72
2022/05/25 10:17:49;;;;;;;7.80;6.97;;;;;;;26.13;54.98;98458.44;4479624;32;20103;-73
2022/05/25 10:20:28;;;;;;;11.00;7.32;;;;;;;26.37;58.26;98450.97;4485596;31;20115;-72
2022/05/25 10:23:22;;;;;;;9.48;7.37;;;;;;;26.80;56.77;98450.44;4479515;31;20450;-73
2022/05/25 10:25:58;;;;;;;7.87;6.87;;;;;;;26.59;54.99;98455.56;4472178;32;20443;-72
2022/05/25 10:28:33;;;;;;;9.80;7.45;;;;;;;26.51;55.41;98456.81;4475586;32;20126;-72
2022/05/25 10:37:07;;;;;;;8.63;6.72;;;;;;;25.18;58.10;98450.12;4484581;32;20142;-70
2022/05/25 10:39:35;;;;;;;9.70;6.70;;;;;;;25.29;58.68;98454.63;4484464;31;20175;-70
2022/05/25 10:42:02;;;;;;;10.50;6.78;;;;;;;25.33;58.75;98450.41;4484254;31;20487;-71
2022/05/25 10:44:38;;;;;;;10.55;6.68;;;;;;;25.50;57.19;98449.62;4483036;32;20160;-71
2022/05/25 10:47:25;;;;;;;14.65;7.05;;;;;;;25.77;55.68;98454.34;4479169;32;20142;-71
2022/05/25 10:49:53;;;;;;;8.23;6.37;;;;;;;25.95;54.41;98451.44;4480489;32;20118;-71
2022/05/25 10:52:38;;;;;;;9.82;5.97;;;;;;;25.28;57.16;98450.28;4481584;32;20101;-73
2022/05/25 10:55:05;;;;;;;8.65;6.50;;;;;;;25.09;58.08;98462.28;4477143;32;20514;-73
2022/05/25 10:57:48;;;;;;;8.35;6.18;;;;;;;25.09;56.66;98460.41;4476523;32;20863;-73
2022/05/25 11:00:23;;;;;;;7.80;5.75;;;;;;;25.38;57.93;98455.06;4482390;32;20100;-73
2022/05/25 11:03:10;;;;;;;9.10;5.78;;;;;;;25.46;56.68;98454.66;4479906;32;20099;-70
2022/05/25 11:05:58;;;;;;;9.00;6.40;;;;;;;25.41;56.02;98457.25;4427857;32;20125;-70
2022/05/25 11:08:25;;;;;;;11.70;5.87;;;;;;;25.85;54.83;98452.06;4414505;32;20242;-70
2022/05/25 11:11:20;;;;;;;7.80;5.78;;;;;;;26.38;54.11;98457.97;4427069;32;20135;-71
2022/05/25 11:14:18;;;;;;;6.82;6.12;;;;;;;25.94;54.90;98465.88;4431569;32;20431;-71
2022/05/25 11:17:00;;;;;;;10.85;5.75;;;;;;;25.33;56.32;98469.19;4430705;32;20132;-71
2022/05/25 11:19:57;;;;;;;6.40;5.20;;;;;;;25.05;58.18;98463.78;4428109;32;20154;-71
2022/05/25 11:22:38;;;;;;;7.28;4.82;;;;;;;25.56;56.63;98462.06;4402742;32;20090;-71
2022/05/25 11:25:08;;;;;;;9.90;5.55;;;;;;;25.90;55.02;98469.31;4401712;32;20134;-70
2022/05/25 11:28:32;;;;;;;7.62;5.80;;;;;;;25.38;56.20;98464.97;4402725;32;20117;-70
2022/05/25 11:31:02;;;;;;;7.95;4.95;;;;;;;25.74;55.99;98460.19;4360578;32;20599;-70
2022/05/25 11:33:54;;;;;;;7.22;4.68;;;;;;;25.70;55.19;98462.56;4360775;32;20459;-72
2022/05/25 11:36:58;;;;;;;6.50;5.15;;;;;;;25.19;55.79;98462.44;4362969;32;20199;-71
2022/05/25 11:39:41;;;;;;;;;;;;;;;25.28;58.03;98466.34;4346405;32;20141;-71
2022/05/25 11:42:18;;;;;;;10.50;5.55;;;;;;;25.28;55.12;98466.34;4359113;32;20065;-71
2022/05/25 11:44:56;;;;;;;7.87;5.53;;;;;;;25.27;57.04;98453.19;4370894;32;20137;-71
2022/05/25 11:47:58;;;;;;;6.25;4.62;;;;;;;25.17;57.18;98464.56;4375013;32;20122;-71
2022/05/25 11:50:38;;;;;;;8.05;4.78;;;;;;;25.19;56.31;98459.75;4366197;32;20198;-71
2022/05/25 11:53:24;;;;;;;8.02;5.15;;;;;;;25.14;55.86;98457.00;4360810;32;20364;-71
2022/05/25 11:56:14;;;;;;;7.93;5.00;;;;;;;25.52;56.89;98462.78;4373605;32;20137;-71
2022/05/25 11:59:09;;;;;;;8.40;5.70;;;;;;;25.66;55.45;98469.47;4376959;32;156251;-71
2022/05/25 12:01:57;;;;;;;6.95;5.95;;;;;;;25.68;55.99;98462.81;4442959;32;20127;-71
2022/05/25 12:05:21;;;;;;;6.05;5.45;;;;;;;26.01;56.53;98466.56;4482589;31;20119;-71
2022/05/25 12:08:02;;;;;;;6.90;5.75;;;;;;;25.84;57.44;98471.09;4420613;32;20132;-72
2022/05/25 12:10:35;;;;;;;7.62;5.53;;;;;;;25.62;59.21;98471.03;4434017;32;20195;-71
2022/05/25 12:13:21;;;;;;;10.27;5.90;;;;;;;25.51;59.73;98475.38;4408676;32;20125;-72
2022/05/25 12:16:10;;;;;;;9.48;6.12;;;;;;;25.21;59.25;98479.13;4432619;32;20143;-72
2022/05/25 12:19:15;;;;;;;11.20;5.62;;;;;;;25.17;59.05;98482.53;4432333;32;20179;-71
2022/05/25 12:21:52;;;;;;;7.05;5.43;;;;;;;25.40;57.86;98481.63;4358241;32;20106;-71
2022/05/25 12:24:23;;;;;;;11.75;6.22;;;;;;;24.89;60.23;98476.91;4359054;32;20149;-71